createdAt,value
2019-05-22T00:02:17.449Z,97.41
2019-05-22T00:05:18.382Z,97.54
2019-05-22T00:08:05.657Z,97.49
2019-05-22T00:10:51.731Z,97.57
2019-05-22T00:13:40.789Z,97.94
2019-05-22T00:16:31.654Z,97.93
2019-05-22T00:19:18.725Z,98.21
2019-05-22T00:22:14.078Z,98.79
2019-05-22T00:25:01.733Z,98.93
2019-05-22T00:27:49.282Z,99.30
2019-05-22T00:30:36.918Z,99.23
2019-05-22T00:33:23.730Z,99.05
2019-05-22T00:36:11.106Z,98.72
2019-05-22T00:38:57.609Z,98.56
2019-05-22T00:41:44.112Z,99.00
2019-05-22T00:44:30.765Z,99.10
2019-05-22T00:47:20.112Z,99.12
2019-05-22T00:50:08.925Z,99.35
2019-05-22T00:53:01.525Z,98.92
2019-05-22T00:56:00.461Z,99.14
2019-05-22T00:58:55.845Z,99.00
2019-05-22T01:01:46.429Z,98.39
2019-05-22T01:04:38.335Z,98.40
2019-05-22T01:07:37.286Z,98.47
2019-05-22T01:10:26.562Z,98.48
2019-05-22T01:13:13.987Z,98.50
2019-05-22T01:16:02.106Z,98.15
2019-05-22T01:18:50.325Z,98.28
2019-05-22T01:21:38.250Z,99.06
2019-05-22T01:24:24.924Z,99.43
2019-05-22T01:27:11.440Z,99.29
2019-05-22T01:30:00.310Z,99.39
2019-05-22T01:32:49.943Z,100.00
2019-05-22T01:35:37.267Z,99.75
2019-05-22T01:38:27.806Z,99.76
2019-05-22T01:41:16.085Z,99.32
2019-05-22T01:44:06.983Z,99.46
2019-05-22T01:46:54.641Z,99.14
2019-05-22T01:49:40.608Z,98.96
2019-05-22T01:52:27.257Z,99.32
2019-05-22T01:55:14.109Z,99.48
2019-05-22T01:58:00.215Z,98.89
2019-05-22T02:00:47.053Z,98.67
2019-05-22T02:03:34.414Z,97.87
2019-05-22T02:06:22.233Z,95.96
2019-05-22T02:09:11.939Z,95.73
2019-05-22T02:11:58.287Z,95.03
2019-05-22T02:14:46.490Z,95.31
2019-05-22T02:17:33.763Z,94.68
2019-05-22T02:20:20.630Z,94.80
2019-05-22T02:23:07.174Z,95.11
2019-05-22T02:25:54.137Z,95.46
2019-05-22T02:28:45.420Z,94.75
2019-05-22T02:31:33.497Z,94.52
2019-05-22T02:34:19.604Z,95.15
2019-05-22T02:37:07.596Z,94.60
2019-05-22T02:39:54.174Z,94.43
2019-05-22T02:42:40.657Z,92.83
2019-05-22T02:45:30.581Z,91.08
2019-05-22T02:48:18.308Z,91.22
2019-05-22T02:51:04.582Z,91.65
2019-05-22T02:53:50.987Z,91.84
2019-05-22T02:56:37.198Z,90.93
2019-05-22T02:59:24.920Z,89.71
2019-05-22T03:02:11.597Z,90.14
2019-05-22T03:05:00.046Z,88.59
2019-05-22T03:07:47.219Z,89.11
2019-05-22T03:10:36.437Z,88.29
2019-05-22T03:13:24.122Z,88.89
2019-05-22T03:16:18.810Z,88.78
2019-05-22T03:19:09.306Z,88.77
2019-05-22T03:21:54.233Z,87.98
2019-05-22T03:24:41.387Z,87.83
2019-05-22T03:27:29.140Z,88.21
2019-05-22T03:30:15.321Z,88.28
2019-05-22T03:33:01.813Z,87.31
2019-05-22T03:35:48.639Z,87.51
2019-05-22T03:38:35.218Z,87.40
2019-05-22T03:41:32.951Z,87.49
2019-05-22T03:44:22.351Z,86.95
2019-05-22T03:47:09.412Z,86.49
2019-05-22T03:49:57.308Z,85.44
2019-05-22T03:52:45.858Z,84.62
2019-05-22T03:55:35.452Z,84.57
2019-05-22T03:58:22.429Z,83.98
2019-05-22T04:01:09.187Z,83.37
2019-05-22T04:03:55.557Z,83.03
2019-05-22T04:06:45.187Z,83.35
2019-05-22T04:09:31.868Z,81.91
2019-05-22T04:12:18.533Z,80.60
2019-05-22T04:15:06.269Z,81.00
2019-05-22T04:17:57.295Z,81.81
2019-05-22T04:20:43.670Z,80.10
2019-05-22T04:23:29.588Z,79.31
2019-05-22T04:26:17.753Z,77.46
2019-05-22T04:29:06.801Z,78.50
2019-05-22T04:32:00.787Z,77.71
2019-05-22T04:34:47.625Z,77.74
2019-05-22T04:37:34.411Z,76.32
2019-05-22T04:40:24.520Z,75.14
2019-05-22T04:43:11.710Z,74.53
2019-05-22T04:45:58.252Z,74.51
2019-05-22T04:48:49.123Z,75.51
2019-05-22T04:51:36.569Z,74.38
2019-05-22T04:54:22.572Z,73.54
2019-05-22T04:57:09.451Z,72.90
2019-05-22T04:59:58.807Z,73.68
2019-05-22T05:02:47.724Z,74.37
2019-05-22T05:05:39.593Z,73.51
2019-05-22T05:08:25.628Z,74.60
2019-05-22T05:11:11.532Z,74.74
2019-05-22T05:13:57.976Z,74.00
2019-05-22T05:16:44.205Z,74.54
2019-05-22T05:19:30.480Z,74.31
2019-05-22T05:22:16.903Z,73.93
2019-05-22T05:25:02.992Z,72.78
2019-05-22T05:27:49.930Z,74.37
2019-05-22T05:30:36.917Z,72.83
2019-05-22T05:33:23.794Z,73.25
2019-05-22T05:36:10.226Z,73.17
2019-05-22T05:38:57.417Z,72.79
2019-05-22T05:41:44.007Z,71.54
2019-05-22T05:44:31.142Z,71.22
2019-05-22T05:47:17.572Z,72.29
2019-05-22T05:50:04.391Z,71.97
2019-05-22T05:52:51.431Z,71.97
2019-05-22T05:55:37.742Z,72.23
2019-05-22T05:58:23.901Z,71.56
2019-05-22T06:01:13.276Z,70.45
2019-05-22T06:04:00.077Z,69.04
2019-05-22T06:06:48.922Z,68.72
2019-05-22T06:09:35.889Z,68.44
2019-05-22T06:12:22.951Z,68.83
2019-05-22T06:15:09.147Z,68.51
2019-05-22T06:17:55.673Z,67.90
2019-05-22T06:20:41.761Z,68.65
2019-05-22T06:23:29.576Z,68.81
2019-05-22T06:26:18.449Z,68.44
2019-05-22T06:29:06.281Z,68.58
2019-05-22T06:31:52.800Z,67.65
2019-05-22T06:34:40.029Z,68.35
2019-05-22T06:37:26.413Z,67.46
2019-05-22T06:40:15.044Z,67.72
2019-05-22T06:43:01.132Z,67.84
2019-05-22T06:45:47.227Z,67.42
2019-05-22T06:48:33.669Z,66.86
2019-05-22T06:51:20.030Z,66.65
2019-05-22T06:54:06.302Z,64.47
2019-05-22T06:56:55.666Z,65.64
2019-05-22T06:59:45.627Z,66.34
2019-05-22T07:02:31.783Z,66.82
2019-05-22T07:05:19.277Z,66.84
2019-05-22T07:08:05.918Z,65.19
2019-05-22T07:10:52.356Z,65.67
2019-05-22T07:13:40.959Z,65.44
2019-05-22T07:16:30.551Z,66.31
2019-05-22T07:19:17.533Z,65.83
2019-05-22T07:22:04.465Z,65.81
2019-05-22T07:24:50.669Z,64.43
2019-05-22T07:27:36.770Z,64.10
2019-05-22T07:30:23.057Z,65.01
2019-05-22T07:33:09.944Z,65.14
2019-05-22T07:36:09.287Z,64.02
2019-05-22T07:38:45.130Z,63.72
2019-05-22T07:41:31.349Z,64.69
2019-05-22T07:44:18.516Z,64.36
2019-05-22T07:47:09.770Z,63.84
2019-05-22T07:49:58.546Z,62.54
2019-05-22T07:52:44.539Z,62.80
2019-05-22T07:55:30.579Z,63.44
2019-05-22T07:58:17.257Z,63.34
2019-05-22T08:01:10.342Z,63.10
2019-05-22T08:03:58.037Z,59.92
2019-05-22T08:06:44.440Z,60.53
2019-05-22T08:09:30.671Z,60.73
2019-05-22T08:12:17.203Z,59.54
2019-05-22T08:15:03.638Z,60.29
2019-05-22T08:17:50.371Z,60.65
2019-05-22T08:20:37.281Z,58.10
2019-05-22T08:23:23.746Z,57.70
2019-05-22T08:26:11.673Z,58.94
2019-05-22T08:29:00.575Z,58.59
2019-05-22T08:31:50.531Z,58.42
2019-05-22T08:34:36.576Z,60.50
2019-05-22T08:37:25.679Z,57.48
2019-05-22T08:40:18.638Z,56.49
2019-05-22T08:43:04.901Z,56.50
2019-05-22T08:45:54.091Z,56.44
2019-05-22T08:48:47.386Z,56.82
2019-05-22T08:51:28.702Z,56.36
2019-05-22T08:54:14.897Z,56.26
2019-05-22T08:57:04.402Z,57.71
2019-05-22T08:59:50.659Z,56.28
2019-05-22T09:02:37.444Z,56.46
2019-05-22T09:05:23.512Z,54.09
2019-05-22T09:08:13.661Z,54.70
2019-05-22T09:11:00.064Z,54.45
2019-05-22T09:13:46.638Z,55.92
2019-05-22T09:16:33.666Z,55.69
2019-05-22T09:19:19.951Z,56.37
2019-05-22T09:22:07.987Z,54.98
2019-05-22T09:24:54.196Z,54.69
2019-05-22T09:27:40.907Z,53.68
2019-05-22T09:30:27.257Z,54.68
2019-05-22T09:33:13.528Z,54.13
2019-05-22T09:36:06.491Z,53.88
2019-05-22T09:38:52.922Z,54.97
2019-05-22T09:41:39.669Z,55.29
2019-05-22T09:44:25.945Z,55.87
2019-05-22T09:47:12.629Z,54.58
2019-05-22T09:50:00.098Z,53.96
2019-05-22T09:52:57.021Z,55.38
2019-05-22T09:55:34.333Z,53.94
2019-05-22T09:58:23.198Z,53.95
2019-05-22T10:01:12.094Z,53.54
2019-05-22T10:03:58.485Z,52.90
2019-05-22T10:06:44.442Z,52.54
2019-05-22T10:09:31.035Z,52.81
2019-05-22T10:12:17.602Z,52.07
2019-05-22T10:15:04.788Z,53.61
2019-05-22T10:17:51.239Z,52.50
2019-05-22T10:20:37.329Z,51.90
2019-05-22T10:23:23.640Z,51.77
2019-05-22T10:26:09.823Z,52.35
2019-05-22T10:28:56.469Z,52.58
2019-05-22T10:31:43.181Z,51.30
2019-05-22T10:34:29.411Z,51.82
2019-05-22T10:37:15.700Z,52.15
2019-05-22T10:40:01.698Z,52.03
2019-05-22T10:42:47.724Z,51.23
2019-05-22T10:45:33.649Z,52.39
2019-05-22T10:48:19.977Z,52.05
2019-05-22T10:51:07.591Z,51.50
2019-05-22T10:53:53.592Z,52.04
2019-05-22T10:56:39.510Z,51.80
2019-05-22T10:59:25.621Z,51.01
2019-05-22T11:02:11.697Z,51.05
2019-05-22T11:04:58.101Z,51.04
2019-05-22T11:07:44.759Z,50.50
2019-05-22T11:10:31.484Z,50.45
2019-05-22T11:13:17.542Z,49.83
2019-05-22T11:16:05.266Z,50.13
2019-05-22T11:18:51.527Z,50.27
2019-05-22T11:21:38.012Z,50.79
2019-05-22T11:24:24.758Z,48.66
2019-05-22T11:27:11.935Z,49.80
2019-05-22T11:29:58.343Z,49.12
2019-05-22T11:32:44.908Z,48.23
2019-05-22T11:35:31.928Z,49.17
2019-05-22T11:38:18.249Z,48.56
2019-05-22T11:41:04.751Z,47.83
2019-05-22T11:43:51.139Z,47.20
2019-05-22T11:46:37.915Z,46.92
2019-05-22T11:49:27.293Z,46.33
2019-05-22T11:52:13.474Z,45.89
2019-05-22T11:55:00.353Z,46.21
2019-05-22T11:57:48.064Z,45.61
2019-05-22T12:00:34.673Z,43.77
2019-05-22T12:03:21.274Z,43.59
2019-05-22T12:06:08.028Z,44.37
2019-05-22T12:08:54.754Z,43.21
2019-05-22T12:11:43.298Z,42.66
2019-05-22T12:14:29.460Z,42.62
2019-05-22T12:17:36.151Z,41.16
2019-05-22T12:20:07.181Z,40.06
2019-05-22T12:22:55.734Z,40.40
2019-05-22T12:25:42.035Z,40.50
2019-05-22T12:28:28.466Z,40.74
2019-05-22T12:31:14.515Z,38.68
2019-05-22T12:34:00.832Z,38.22
2019-05-22T12:36:50.968Z,37.52
2019-05-22T12:39:35.164Z,36.62
2019-05-22T12:42:21.654Z,37.20
2019-05-22T12:45:09.612Z,38.79
2019-05-22T12:47:55.991Z,38.89
2019-05-22T12:50:43.198Z,38.61
2019-05-22T12:53:30.264Z,39.48
2019-05-22T12:56:16.776Z,41.21
2019-05-22T12:59:02.981Z,39.68
2019-05-22T13:01:49.590Z,38.60
2019-05-22T13:04:38.146Z,39.16
2019-05-22T13:07:24.781Z,38.90
2019-05-22T13:10:11.966Z,37.64
2019-05-22T13:12:58.288Z,38.48
2019-05-22T13:15:45.380Z,38.35
2019-05-22T13:18:31.730Z,37.66
2019-05-22T13:21:18.579Z,36.30
2019-05-22T13:24:05.953Z,35.92
2019-05-22T13:26:52.532Z,33.58
2019-05-22T13:29:39.481Z,35.70
2019-05-22T13:32:25.633Z,35.76
2019-05-22T13:35:12.787Z,33.51
2019-05-22T13:37:59.157Z,33.94
2019-05-22T13:40:45.478Z,33.09
2019-05-22T13:43:32.491Z,33.02
2019-05-22T13:46:19.597Z,32.43
2019-05-22T13:49:05.995Z,33.22
2019-05-22T13:51:58.912Z,31.19
2019-05-22T13:54:45.408Z,31.46
2019-05-22T13:57:32.459Z,30.36
2019-05-22T14:00:21.989Z,31.09
2019-05-22T14:03:10.833Z,31.67
2019-05-22T14:05:58.443Z,32.61
2019-05-22T14:08:44.484Z,33.50
2019-05-22T14:11:30.549Z,34.02
2019-05-22T14:14:20.202Z,34.96
2019-05-22T14:17:06.117Z,34.46
2019-05-22T14:19:52.267Z,35.94
2019-05-22T14:22:40.710Z,35.23
2019-05-22T14:25:27.199Z,34.90
2019-05-22T14:28:14.083Z,34.74
2019-05-22T14:31:00.101Z,32.88
2019-05-22T14:33:46.428Z,32.33
2019-05-22T14:36:32.516Z,32.63
2019-05-22T14:39:19.276Z,31.72
2019-05-22T14:42:09.939Z,31.93
2019-05-22T14:44:56.235Z,32.40
2019-05-22T14:47:42.757Z,31.38
2019-05-22T14:50:33.321Z,31.28
2019-05-22T14:53:21.096Z,32.75
2019-05-22T14:56:10.912Z,33.14
2019-05-22T14:58:59.962Z,31.90
2019-05-22T15:01:46.778Z,32.47
2019-05-22T15:04:33.365Z,31.34
2019-05-22T15:07:21.720Z,30.51
2019-05-22T15:10:07.653Z,29.96
2019-05-22T15:12:53.905Z,31.09
2019-05-22T15:15:41.226Z,32.20
2019-05-22T15:18:28.404Z,31.21
2019-05-22T15:21:18.519Z,32.28
2019-05-22T15:24:04.583Z,32.47
2019-05-22T15:26:57.756Z,33.66
2019-05-22T15:29:44.472Z,33.48
2019-05-22T15:32:30.554Z,34.13
2019-05-22T15:35:17.230Z,34.29
2019-05-22T15:38:03.537Z,34.35
2019-05-22T15:40:49.689Z,34.81
2019-05-22T15:43:36.186Z,35.40
2019-05-22T15:46:23.475Z,34.51
2019-05-22T15:49:09.856Z,35.41
2019-05-22T15:51:56.592Z,35.44
2019-05-22T15:54:42.824Z,36.18
2019-05-22T15:57:32.134Z,36.63
2019-05-22T16:00:22.396Z,36.18
2019-05-22T16:03:09.955Z,36.44
2019-05-22T16:05:56.669Z,35.89
2019-05-22T16:08:42.823Z,36.10
2019-05-22T16:11:28.975Z,36.12
2019-05-22T16:14:15.910Z,36.32
2019-05-22T16:17:05.717Z,36.69
2019-05-22T16:19:51.984Z,36.36
2019-05-22T16:22:38.990Z,36.95
2019-05-22T16:25:28.705Z,35.73
2019-05-22T16:28:15.616Z,36.13
2019-05-22T16:31:01.930Z,36.40
2019-05-22T16:33:48.793Z,36.43
2019-05-22T16:36:35.298Z,36.56
2019-05-22T16:39:21.383Z,36.08
2019-05-22T16:42:08.103Z,36.57
2019-05-22T16:44:54.604Z,36.33
2019-05-22T16:47:40.886Z,36.62
2019-05-22T16:50:28.182Z,37.18
2019-05-22T16:53:14.292Z,35.94
2019-05-22T16:56:03.154Z,36.16
2019-05-22T16:58:50.189Z,36.98
2019-05-22T17:01:57.088Z,37.34
2019-05-22T17:04:24.456Z,37.37
2019-05-22T17:07:11.025Z,37.48
2019-05-22T17:09:57.547Z,36.82
2019-05-22T17:12:43.835Z,37.54
2019-05-22T17:15:30.821Z,37.05
2019-05-22T17:18:21.461Z,37.43
2019-05-22T17:21:07.980Z,37.76
2019-05-22T17:23:57.271Z,37.59
2019-05-22T17:26:44.088Z,37.71
2019-05-22T17:29:30.197Z,37.25
2019-05-22T17:32:17.003Z,37.86
2019-05-22T17:35:04.450Z,37.95
2019-05-22T17:37:50.533Z,38.12
2019-05-22T17:40:38.093Z,37.58
2019-05-22T17:43:24.859Z,37.90
2019-05-22T17:46:11.677Z,37.37
2019-05-22T17:48:58.003Z,38.12
2019-05-22T17:51:45.024Z,38.27
2019-05-22T17:54:32.448Z,38.17
2019-05-22T17:57:19.475Z,38.07
2019-05-22T18:00:07.027Z,37.73
2019-05-22T18:02:53.503Z,38.02
2019-05-22T18:05:39.901Z,37.95
2019-05-22T18:08:27.524Z,37.68
2019-05-22T18:11:13.685Z,37.76
2019-05-22T18:13:59.750Z,37.69
2019-05-22T18:16:45.973Z,37.91
2019-05-22T18:19:32.444Z,38.10
2019-05-22T18:22:18.677Z,38.99
2019-05-22T18:25:10.651Z,39.02
2019-05-22T18:27:57.330Z,38.80
2019-05-22T18:30:44.013Z,38.84
2019-05-22T18:33:30.501Z,38.96
2019-05-22T18:36:17.029Z,39.42
2019-05-22T18:39:04.358Z,40.38
2019-05-22T18:41:50.656Z,40.38
2019-05-22T18:44:37.313Z,40.43
2019-05-22T18:47:24.068Z,40.37
2019-05-22T18:50:15.708Z,40.40
2019-05-22T18:53:04.453Z,40.56
2019-05-22T18:55:55.964Z,40.00
2019-05-22T18:58:43.421Z,40.83
2019-05-22T19:01:29.898Z,40.83
2019-05-22T19:04:16.126Z,41.04
2019-05-22T19:07:02.461Z,41.01
2019-05-22T19:09:51.110Z,41.43
2019-05-22T19:12:37.517Z,41.47
2019-05-22T19:15:23.725Z,41.67
2019-05-22T19:18:10.656Z,41.98
2019-05-22T19:20:57.321Z,42.03
2019-05-22T19:23:43.334Z,42.29
2019-05-22T19:26:30.226Z,42.43
2019-05-22T19:29:16.840Z,42.44
2019-05-22T19:32:02.913Z,43.10
2019-05-22T19:34:57.415Z,42.73
2019-05-22T19:37:45.997Z,42.95
2019-05-22T19:40:32.923Z,43.27
2019-05-22T19:43:21.376Z,43.58
2019-05-22T19:46:12.498Z,43.25
2019-05-22T19:48:58.906Z,43.29
2019-05-22T19:51:45.497Z,43.79
2019-05-22T19:54:31.518Z,43.79
2019-05-22T19:57:17.790Z,43.17
2019-05-22T20:00:05.003Z,44.00
2019-05-22T20:02:54.157Z,43.61
2019-05-22T20:05:40.897Z,43.63
2019-05-22T20:08:27.603Z,43.82
2019-05-22T20:11:13.817Z,44.30
2019-05-22T20:14:00.239Z,43.79
2019-05-22T20:16:46.637Z,43.79
2019-05-22T20:19:32.831Z,43.85
2019-05-22T20:22:18.947Z,43.28
2019-05-22T20:25:05.480Z,42.61
2019-05-22T20:27:55.861Z,40.41
2019-05-22T20:30:43.523Z,41.01
2019-05-22T20:33:29.893Z,41.02
2019-05-22T20:36:17.247Z,40.79
2019-05-22T20:39:03.710Z,41.12
2019-05-22T20:41:50.489Z,41.63
2019-05-22T20:44:37.563Z,42.25
2019-05-22T20:47:25.651Z,42.60
2019-05-22T20:50:12.798Z,42.98
2019-05-22T20:52:59.218Z,43.13
2019-05-22T20:55:48.796Z,43.26
2019-05-22T20:58:35.971Z,42.73
2019-05-22T21:01:22.444Z,42.83
2019-05-22T21:04:10.708Z,43.49
2019-05-22T21:06:59.737Z,43.01
2019-05-22T21:09:45.112Z,42.87
2019-05-22T21:12:35.329Z,42.69
2019-05-22T21:15:19.639Z,43.21
2019-05-22T21:18:05.978Z,43.17
2019-05-22T21:20:55.081Z,43.12
2019-05-22T21:23:44.109Z,43.03
2019-05-22T21:26:32.366Z,43.61
2019-05-22T21:29:18.601Z,43.07
2019-05-22T21:32:05.797Z,43.23
2019-05-22T21:34:52.215Z,42.95
2019-05-22T21:37:38.516Z,42.86
2019-05-22T21:40:25.396Z,42.30
2019-05-22T21:43:12.143Z,42.58
2019-05-22T21:45:58.440Z,42.78
2019-05-22T21:48:44.964Z,43.25
2019-05-22T21:51:31.669Z,43.63
2019-05-22T21:54:17.739Z,43.74
2019-05-22T21:57:04.461Z,44.06
2019-05-22T21:59:51.988Z,44.32
2019-05-22T22:02:38.518Z,44.73
2019-05-22T22:05:24.935Z,45.25
2019-05-22T22:08:11.677Z,45.81
2019-05-22T22:10:58.095Z,45.86
2019-05-22T22:13:44.650Z,46.08
2019-05-22T22:16:31.207Z,46.69
2019-05-22T22:19:18.622Z,47.06
2019-05-22T22:22:05.364Z,47.54
2019-05-22T22:24:54.515Z,48.66
2019-05-22T22:27:40.741Z,48.95
2019-05-22T22:30:36.378Z,49.94
2019-05-22T22:33:22.575Z,50.23
2019-05-22T22:36:12.564Z,50.45
2019-05-22T22:39:03.634Z,50.54
2019-05-22T22:41:50.739Z,51.00
2019-05-22T22:44:40.655Z,51.09
2019-05-22T22:47:46.711Z,51.24
2019-05-22T22:50:33.242Z,51.72
2019-05-22T22:53:22.649Z,52.12
2019-05-22T22:56:10.314Z,51.89
2019-05-22T22:58:58.973Z,52.44
2019-05-22T23:01:48.854Z,52.54
2019-05-22T23:04:35.255Z,53.01
2019-05-22T23:07:22.353Z,53.03
2019-05-22T23:10:11.728Z,53.59
2019-05-22T23:12:57.931Z,53.67
2019-05-22T23:15:46.807Z,53.67
2019-05-22T23:18:33.056Z,54.08
2019-05-22T23:21:21.010Z,54.36
2019-05-22T23:24:09.101Z,54.47
2019-05-22T23:26:56.270Z,55.25
2019-05-22T23:29:43.169Z,55.12
2019-05-22T23:32:29.474Z,55.42
2019-05-22T23:35:15.849Z,55.72
2019-05-22T23:38:02.519Z,55.78
2019-05-22T23:40:48.469Z,56.21
2019-05-22T23:43:34.499Z,56.75
2019-05-22T23:46:20.821Z,57.17
2019-05-22T23:49:08.046Z,57.18
2019-05-22T23:51:54.595Z,57.45
2019-05-22T23:54:41.607Z,57.33
2019-05-22T23:57:28.239Z,57.89
